Latest Weather Observations for Condobolin Airport

IDN60801

Issued at 11:04 am EDT Friday 27 February 2015 (issued every 30 minutes, with the page automatically refreshed every 10 minutes)

About weather observations | Map of weather stations | Latest weather observations for NSW | Other Formats
Station Details ID: 050137 Name: CONDOBOLIN AIRPORT AWS Lat: -33.07 Lon: 147.21 Height: 192.6 m
Data from the previous 72 hours. | See also: Recent months at Condobolin Airport
Date/Time
EDT
Temp
°C
App
Temp
°C
Dew
Point
Rel
Hum
%
Delta-T
°C
Wind Press
QNH
hPa
Press
MSL
hPa
Rain
since 9 am
mm
Dir
 
Spd
km/h
Gust
km/h
Spd
kts
Gust
kts
27/11:00am 29.5 29.1 12.4 35 10.1 NNW 6 11 3 6 1010.2 1009.1 0.0
27/10:30am 27.5 27.1 12.3 39 8.9 W 6 11 3 6 1010.2 1009.1 0.0
27/10:00am 26.2 26.2 12.3 42 8.1 WSW 4 9 2 5 1010.3 1009.2 0.0
27/09:30am 24.8 24.9 11.4 43 7.6 N 2 9 1 5 1010.0 1008.9 0.0
27/09:00am 23.0 22.4 10.4 45 7.0 ESE 4 9 2 5 1010.0 1008.9 0.0
27/08:30am 21.5 19.6 10.6 50 6.0 ESE 11 15 6 8 1009.8 1008.7 0.0
27/08:00am 19.7 19.5 11.7 60 4.5 ENE 4 7 2 4 1009.5 1008.4 0.0
27/07:30am 17.1 17.4 10.9 67 3.4 CALM 0 0 0 0 1009.2 1008.1 0.0
27/07:00am 15.6 15.7 10.2 70 2.9 CALM 0 0 0 0 1008.9 1007.8 0.0
27/06:30am 15.6 15.6 9.9 69 3.0 CALM 0 6 0 3 1008.3 1007.3 0.0
27/06:00am 16.2 16.3 10.1 67 3.2 CALM 0 0 0 0 1007.9 1006.9 0.0
27/05:30am 16.9 17.1 10.5 66 3.4 CALM 0 6 0 3 1007.8 1006.8 0.0
27/05:00am 16.2 15.8 9.8 66 3.4 ENE 2 9 1 5 1007.7 1006.7 0.0
27/04:30am 17.7 17.6 9.3 58 4.4 CALM 0 0 0 0 1007.8 1006.8 0.0
27/04:00am 18.1 17.5 8.9 55 4.8 W 2 6 1 3 1007.8 1006.8 0.0
27/03:30am 17.9 16.7 9.5 58 4.5 WSW 6 9 3 5 1007.9 1006.9 0.0
27/03:00am 17.8 17.6 8.9 56 4.7 CALM 0 0 0 0 1008.0 1007.0 0.0
27/02:30am 18.6 17.6 8.8 53 5.2 W 4 7 2 4 1008.1 1007.1 0.0
27/02:00am 19.6 19.3 8.6 49 5.8 CALM 0 0 0 0 1008.1 1007.1 0.0
27/01:30am 20.6 20.2 8.3 45 6.5 CALM 0 4 0 2 1008.5 1007.5 0.0
27/01:00am 21.3 20.7 8.9 45 6.6 W 2 6 1 3 1008.5 1007.5 0.0
27/12:30am 21.3 21.0 8.6 44 6.8 CALM 0 0 0 0 1008.5 1007.5 0.0
27/12:00am 22.1 19.9 7.9 40 7.5 SW 9 9 5 5 1008.7 1007.6 0.0
 
Date/Time
EDT
Temp
°C
App
Temp
°C
Dew
Point
Rel
Hum
%
Delta-T
°C
Wind Press
QNH
hPa
Press
MSL
hPa
Rain
since 9 am
mm
Dir
 
Spd
km/h
Gust
km/h
Spd
kts
Gust
kts
26/11:30pm 23.1 20.5 7.6 37 8.2 SSW 11 15 6 8 1008.4 1007.4 0.0
26/11:00pm 23.3 20.9 7.0 35 8.5 SSW 9 13 5 7 1008.3 1007.3 0.0
26/10:30pm 24.1 21.6 6.4 32 9.2 S 9 11 5 6 1008.3 1007.3 0.0
26/10:00pm 24.8 22.1 5.6 29 9.9 SSW 9 11 5 6 1008.2 1007.2 0.0
26/09:30pm 24.3 20.6 4.6 28 9.9 SSW 13 15 7 8 1007.6 1006.6 0.0
26/09:00pm 25.0 20.9 2.4 23 11.0 SW 13 13 7 7 1007.2 1006.2 0.0
26/08:30pm 27.5 23.2 1.1 18 12.7 SSW 13 17 7 9 1006.7 1005.6 0.0
26/08:00pm 28.8 23.4 1.3 17 13.5 SSW 19 22 10 12 1006.2 1005.1 0.0
26/07:30pm 29.6 24.7 2.0 17 13.7 SSW 17 20 9 11 1005.8 1004.7 0.0
26/07:00pm 30.8 25.5 2.1 16 14.5 SSW 19 24 10 13 1005.5 1004.4 0.0
26/06:30pm 31.4 25.5 1.7 15 14.9 SSW 22 32 12 17 1005.3 1004.2 0.0
26/06:00pm 32.2 27.1 4.1 17 14.8 SW 20 33 11 18 1005.1 1004.0 0.0
26/05:30pm 32.4 27.2 3.4 16 15.0 SW 20 30 11 16 1005.2 1004.1 0.0
26/05:00pm 32.0 26.9 3.9 17 14.7 SSW 20 33 11 18 1005.3 1004.2 0.0
26/04:30pm 31.6 25.9 2.7 16 14.7 SW 22 39 12 21 1005.4 1004.3 0.0
26/04:00pm 31.6 26.4 3.6 17 14.5 WSW 20 28 11 15 1005.7 1004.6 0.0
26/03:30pm 31.8 27.9 5.3 19 14.1 SSW 15 28 8 15 1006.0 1004.9 0.0
26/03:00pm 32.3 26.5 4.2 17 14.8 WSW 24 35 13 19 1006.7 1005.6 0.0
26/02:30pm 31.5 27.5 6.5 21 13.6 WSW 17 35 9 19 1007.0 1006.0 0.0
26/02:00pm 30.9 25.9 4.6 19 13.8 W 20 32 11 17 1007.2 1006.2 0.0
26/01:30pm 30.9 26.3 8.0 24 12.7 WSW 22 32 12 17 1007.6 1006.6 0.0
26/01:00pm 30.1 27.5 10.6 30 11.2 WSW 15 24 8 13 1007.8 1006.8 0.0
26/12:30pm 29.1 26.0 8.7 28 11.3 SW 15 22 8 12 1008.2 1007.2 0.0
26/12:00pm 28.6 27.4 12.9 38 9.3 W 11 19 6 10 1008.5 1007.5 0.0
26/11:30am 28.9 28.2 15.4 44 8.3 NW 13 19 7 10 1008.8 1007.7 0.0
26/11:00am 27.8 27.1 15.5 47 7.6 NW 13 20 7 11 1009.1 1008.0 0.0
26/10:30am 26.8 26.7 17.0 55 6.2 WNW 13 20 7 11 1009.9 1008.8 0.0
26/10:00am 25.2 24.1 16.3 57 5.5 N 17 24 9 13 1009.4 1008.3 0.0
26/09:30am 23.9 23.5 17.2 66 4.2 NNE 15 20 8 11 1009.5 1008.4 0.0
26/09:00am 22.4 23.2 17.3 73 3.2 NE 9 13 5 7 1009.8 1008.7 0.0
26/08:30am 21.0 20.5 17.0 78 2.5 NE 15 20 8 11 1009.2 1008.1 0.0
26/08:00am 19.8 21.1 17.6 87 1.4 NE 7 9 4 5 1009.4 1008.3 0.0
26/07:30am 18.6 19.6 16.9 90 1.0 NE 7 9 4 5 1009.5 1008.4 0.0
26/07:00am 17.9 18.7 16.4 91 0.9 NE 7 9 4 5 1009.0 1007.9 0.0
26/06:30am 17.5 18.2 15.5 88 1.2 NE 6 9 3 5 1008.9 1007.8 0.0
26/06:00am 18.2 20.0 15.6 85 1.5 CALM 0 0 0 0 1009.0 1007.9 0.0
26/05:30am 18.3 20.1 15.4 83 1.7 CALM 0 0 0 0 1009.0 1007.9 0.0
26/05:00am 18.7 20.5 15.4 81 2.0 CALM 0 0 0 0 1008.8 1007.7 0.0
26/04:30am 19.7 21.9 16.5 82 1.9 CALM 0 0 0 0 1008.8 1007.7 0.0
26/04:00am 19.7 21.6 15.8 78 2.3 CALM 0 0 0 0 1008.9 1007.8 0.0
26/03:30am 20.2 21.8 16.0 77 2.5 NNE 2 6 1 3 1009.0 1007.9 0.0
26/03:00am 20.3 21.0 16.1 77 2.5 NNE 7 11 4 6 1009.3 1008.2 0.0
26/02:30am 20.7 22.3 15.9 74 2.9 NE 2 9 1 5 1009.3 1008.2 0.0
26/02:00am 21.2 21.9 16.0 72 3.2 NE 7 9 4 5 1009.7 1008.6 0.0
26/01:30am 21.9 21.4 16.0 69 3.6 NE 13 17 7 9 1009.8 1008.7 0.0
26/01:00am 22.2 21.0 16.0 68 3.8 NE 17 24 9 13 1010.0 1008.9 0.0
26/12:30am 22.6 21.1 16.2 67 3.9 NE 19 26 10 14 1010.2 1009.1 0.0
26/12:00am 23.0 21.0 16.5 67 4.0 ENE 22 30 12 16 1010.3 1009.2 0.0
 
Date/Time
EDT
Temp
°C
App
Temp
°C
Dew
Point
Rel
Hum
%
Delta-T
°C
Wind Press
QNH
hPa
Press
MSL
hPa
Rain
since 9 am
mm
Dir
 
Spd
km/h
Gust
km/h
Spd
kts
Gust
kts
25/11:30pm 23.7 22.9 17.0 66 4.2 NE 17 22 9 12 1010.3 1009.2 0.0
25/11:00pm 23.5 22.8 16.5 65 4.3 NE 15 22 8 12 1010.3 1009.2 0.0
25/10:30pm 24.1 21.5 16.9 64 4.5 ENE 26 35 14 19 1010.2 1009.1 0.0
25/10:00pm 25.3 24.4 17.7 62 4.8 ENE 19 28 10 15 1010.0 1008.9 0.0
25/09:30pm 26.8 26.3 17.0 55 6.2 ESE 15 22 8 12 1009.5 1008.4 0.0
25/09:00pm 27.6 26.5 15.3 47 7.6 SE 15 22 8 12 1009.0 1007.9 0.0
25/08:30pm 28.6 26.1 15.2 44 8.2 E 22 30 12 16 1008.4 1007.4 0.0
25/08:00pm 29.6 28.1 15.3 41 8.9 SE 17 24 9 13 1008.0 1007.0 0.0
25/07:30pm 31.4 29.6 13.2 33 11.0 SW 15 20 8 11 1007.5 1006.5 0.0
25/07:00pm 31.7 29.2 13.5 33 11.1 SW 19 24 10 13 1007.1 1006.1 0.0
25/06:30pm 32.6 31.2 13.3 31 11.7 SSW 13 20 7 11 1006.9 1005.8 0.0
25/06:00pm 32.5 30.1 13.7 32 11.5 SSW 19 22 10 12 1007.0 1006.0 0.0
25/05:30pm 32.4 28.8 13.1 31 11.7 W 24 35 13 19 1007.2 1006.2 0.0
25/05:00pm 32.6 30.2 13.8 32 11.5 WSW 19 24 10 13 1007.1 1006.1 0.0
25/04:30pm 32.8 32.9 13.9 31 11.6 SW 6 13 3 7 1007.6 1006.6 0.0
25/04:00pm 33.7 32.9 15.2 33 11.6 SW 13 22 7 12 1008.1 1007.1 0.0
25/03:30pm 33.2 32.2 13.3 30 12.1 NW 11 17 6 9 1008.5 1007.5 0.0
25/03:00pm 33.3 33.4 14.4 32 11.7 W 7 15 4 8 1009.4 1008.3 0.0
25/02:30pm 32.2 31.5 14.3 33 11.0 WNW 11 17 6 9 1010.0 1008.9 0.0
25/02:00pm 32.0 31.4 14.6 34 10.7 WNW 11 15 6 8 1010.6 1009.5 0.0
25/01:30pm 31.5 30.4 14.2 35 10.6 NNE 13 19 7 10 1011.2 1010.1 0.0
25/01:00pm 32.0 31.0 14.6 34 10.7 N 13 20 7 11 1011.6 1010.6 0.0
25/12:30pm 31.3 30.9 15.3 38 10.0 N 11 26 6 14 1012.2 1011.2 0.0
25/12:00pm 30.2 29.0 15.1 40 9.3 NNE 15 24 8 13 1012.8 1011.8 0.0
25/11:30am 30.2 29.4 16.2 42 8.8 NNE 15 26 8 14 1013.2 1012.2 0.0
25/11:00am 28.9 27.4 15.4 44 8.3 NE 17 28 9 15 1013.4 1012.4 0.0
25/10:30am 27.8 26.1 15.8 48 7.4 NE 19 30 10 16 1013.4 1012.4 0.0
25/10:00am 26.6 24.8 15.6 50 6.8 NE 19 28 10 15 1013.5 1012.5 0.0
25/09:30am 25.7 24.4 15.7 54 6.1 ENE 17 28 9 15 1013.8 1012.8 0.0
25/09:00am 24.6 23.2 15.5 57 5.5 ENE 17 22 9 12 1014.1 1013.0 0.0
25/08:30am 23.7 23.5 15.7 61 4.9 ENE 11 15 6 8 1014.2 1013.1 0.0
25/08:00am 22.3 21.7 15.6 66 4.0 E 13 17 7 9 1013.8 1012.8 0.0
25/07:30am 21.0 21.2 15.8 72 3.1 E 9 11 5 6 1013.5 1012.5 0.0
25/07:00am 20.2 19.9 15.4 74 2.9 ESE 11 13 6 7 1013.3 1012.3 0.0
25/06:30am 20.7 20.4 15.5 72 3.1 SE 11 13 6 7 1013.0 1012.0 0.0
25/06:00am 21.1 21.4 15.0 68 3.6 ESE 7 9 4 5 1012.6 1011.6 0.0
25/05:30am 22.2 21.5 15.3 65 4.1 ENE 13 17 7 9 1012.3 1011.3 0.0
25/05:00am 22.7 21.7 15.5 64 4.4 ENE 15 20 8 11 1012.0 1011.0 0.0
25/04:30am 22.8 22.2 15.6 64 4.4 ENE 13 15 7 8 1011.8 1010.8 0.0
25/04:00am 23.2 23.1 16.0 64 4.4 NE 11 17 6 9 1011.8 1010.8 0.0
25/03:30am 23.5 23.1 16.1 63 4.5 NE 13 17 7 9 1011.8 1010.8 0.0
25/03:00am 24.1 23.2 15.9 60 5.0 NE 15 22 8 12 1011.8 1010.8 0.0
25/02:30am 24.9 22.5 16.3 59 5.3 NE 24 33 13 18 1011.8 1010.8 0.0
25/02:00am 25.5 23.5 16.4 57 5.6 ENE 22 32 12 17 1012.0 1011.0 0.0
25/01:30am 26.3 24.9 16.5 54 6.1 ENE 19 26 10 14 1012.0 1011.0 0.0
25/01:00am 25.5 24.9 16.6 58 5.5 ESE 15 20 8 11 1012.2 1011.2 0.0
25/12:30am 26.1 25.8 16.4 55 6.0 SE 13 17 7 9 1012.2 1011.2 0.0
25/12:00am 26.9 26.0 15.9 51 6.8 SE 15 20 8 11 1012.3 1011.3 0.0
 
Date/Time
EDT
Temp
°C
App
Temp
°C
Dew
Point
Rel
Hum
%
Delta-T
°C
Wind Press
QNH
hPa
Press
MSL
hPa
Rain
since 9 am
mm
Dir
 
Spd
km/h
Gust
km/h
Spd
kts
Gust
kts
24/11:30pm 27.3 27.2 15.0 47 7.5 S 9 11 5 6 1012.5 1011.5 0.0
24/11:00pm 27.8 27.5 15.5 47 7.6 SSW 11 15 6 8 1012.7 1011.7 0.0
24/10:30pm 28.3 26.7 14.9 44 8.2 SSW 17 24 9 13 1012.4 1011.4 0.0
24/10:00pm 28.6 26.9 14.8 43 8.4 SSW 17 20 9 11 1012.3 1011.3 0.0
24/09:30pm 29.6 27.7 14.2 39 9.4 SSW 17 20 9 11 1012.2 1011.2 0.0
24/09:00pm 30.1 28.2 14.2 38 9.7 SSW 17 22 9 12 1011.9 1010.9 0.0
24/08:30pm 30.9 29.0 14.1 36 10.2 SSW 17 24 9 13 1011.5 1010.4 0.0
24/08:00pm 31.6 29.4 13.4 33 11.0 S 17 24 9 13 1010.9 1009.8 0.0
24/07:30pm 32.6 30.0 13.3 31 11.7 S 19 30 10 16 1010.7 1009.6 0.0
24/07:00pm 33.2 29.9 12.8 29 12.3 SSW 22 30 12 16 1010.4 1009.3 0.0
24/06:30pm 33.9 30.8 13.4 29 12.5 SSW 22 32 12 17 1010.3 1009.2 0.0
24/06:00pm 34.6 31.0 12.9 27 13.2 SSW 24 33 13 18 1010.2 1009.1 0.0
24/05:30pm 35.0 31.8 13.2 27 13.3 SSW 22 32 12 17 1010.2 1009.1 0.0
24/05:00pm 35.6 33.0 13.1 25 13.8 SSW 19 30 10 16 1010.2 1009.1 0.0
24/04:30pm 35.4 32.5 14.1 28 13.2 S 22 33 12 18 1010.3 1009.2 0.0
24/04:00pm 36.1 33.6 13.6 26 13.9 SSW 19 32 10 17 1010.4 1009.3 0.0
24/03:30pm 34.9 31.7 13.1 27 13.3 SSW 22 33 12 18 1010.8 1009.7 0.0
24/03:00pm 35.4 32.9 13.5 26 13.5 S 19 33 10 18 1011.0 1009.9 0.0
24/02:30pm 34.5 32.1 12.8 27 13.2 SSW 17 28 9 15 1011.3 1010.2 0.0
24/02:00pm 34.0 32.8 12.9 28 12.8 SW 11 24 6 13 1011.7 1010.7 0.0
24/01:30pm 34.7 32.4 13.0 27 13.2 SW 17 28 9 15 1011.9 1010.9 0.0
24/01:00pm 34.2 33.7 12.0 26 13.3 WNW 6 11 3 6 1012.1 1011.1 0.0
24/12:30pm 33.7 32.8 12.7 28 12.7 SW 9 20 5 11 1012.4 1011.4 0.0
24/12:00pm 33.7 33.7 13.7 30 12.3 S 6 15 3 8 1012.7 1011.7 0.0
24/11:30am 32.4 31.0 14.5 33 11.0 WNW 15 20 8 11 1012.7 1011.7 0.0

Other Formats:

Comma delimited format used in spreadsheet applications
http://www.bom.gov.au/fwo/IDN60801/IDN60801.95708.axf

JavaScript Object Notation format (JSON) in row-major order
http://www.bom.gov.au/fwo/IDN60801/IDN60801.95708.json